createdAt,value
2019-03-16T00:01:12.693Z,10.80
2019-03-16T00:03:41.329Z,10.80
2019-03-16T00:06:10.632Z,10.80
2019-03-16T00:08:39.966Z,10.80
2019-03-16T00:11:09.260Z,10.70
2019-03-16T00:13:38.599Z,10.70
2019-03-16T00:16:07.962Z,10.70
2019-03-16T00:18:37.295Z,10.70
2019-03-16T00:21:06.604Z,10.60
2019-03-16T00:23:35.950Z,10.60
2019-03-16T00:26:05.259Z,10.60
2019-03-16T00:28:34.581Z,10.50
2019-03-16T00:31:03.897Z,10.50
2019-03-16T00:33:33.224Z,10.50
2019-03-16T00:36:02.529Z,10.50
2019-03-16T00:38:31.918Z,10.40
2019-03-16T00:41:01.217Z,10.40
2019-03-16T00:43:30.556Z,10.40
2019-03-16T00:45:59.844Z,10.40
2019-03-16T00:48:29.186Z,10.30
2019-03-16T00:50:58.483Z,10.30
2019-03-16T00:53:27.811Z,10.30
2019-03-16T00:55:57.144Z,10.30
2019-03-16T00:58:26.452Z,10.30
2019-03-16T01:00:55.820Z,10.30
2019-03-16T01:03:25.143Z,10.30
2019-03-16T01:05:54.447Z,10.30
2019-03-16T01:08:25.377Z,10.20
2019-03-16T01:10:54.674Z,10.30
2019-03-16T01:13:24.008Z,10.30
2019-03-16T01:15:53.310Z,10.20
2019-03-16T01:18:22.637Z,10.30
2019-03-16T01:20:51.937Z,10.30
2019-03-16T01:23:21.262Z,10.30
2019-03-16T01:25:50.604Z,10.30
2019-03-16T01:28:19.921Z,10.30
2019-03-16T01:30:49.218Z,10.30
2019-03-16T01:33:18.878Z,10.40
2019-03-16T01:35:48.193Z,10.30
2019-03-16T01:38:17.509Z,10.40
2019-03-16T01:40:46.801Z,10.40
2019-03-16T01:43:16.371Z,10.40
2019-03-16T01:45:45.688Z,10.40
2019-03-16T01:48:15.028Z,10.40
2019-03-16T01:50:44.412Z,10.40
2019-03-16T01:53:14.797Z,10.40
2019-03-16T01:55:44.119Z,10.40
2019-03-16T01:58:13.416Z,10.40
2019-03-16T02:00:42.743Z,10.40
2019-03-16T02:03:13.149Z,10.40
2019-03-16T02:05:42.472Z,10.40
2019-03-16T02:08:11.768Z,10.50
2019-03-16T02:10:41.088Z,10.50
2019-03-16T02:13:10.385Z,10.50
2019-03-16T02:15:39.768Z,10.50
2019-03-16T02:18:09.092Z,10.50
2019-03-16T02:20:39.481Z,10.50
2019-03-16T02:23:08.814Z,10.50
2019-03-16T02:25:38.114Z,10.60
2019-03-16T02:28:07.495Z,10.70
2019-03-16T02:30:36.966Z,10.60
2019-03-16T02:33:13.400Z,10.60
2019-03-16T02:35:38.469Z,10.60
2019-03-16T02:38:08.849Z,10.60
2019-03-16T02:40:50.895Z,10.60
2019-03-16T02:43:20.220Z,10.60
2019-03-16T02:45:49.605Z,10.60
2019-03-16T02:48:18.900Z,10.60
2019-03-16T02:50:48.233Z,10.60
2019-03-16T02:53:17.527Z,10.60
2019-03-16T02:55:46.993Z,10.50
2019-03-16T02:58:16.372Z,10.50
2019-03-16T03:00:45.800Z,10.50
2019-03-16T03:03:28.616Z,10.50
2019-03-16T03:05:46.115Z,10.50
2019-03-16T03:08:15.412Z,10.50
2019-03-16T03:10:44.744Z,10.60
2019-03-16T03:13:14.206Z,10.50
2019-03-16T03:15:43.950Z,10.60
2019-03-16T03:18:13.277Z,10.50
2019-03-16T03:20:42.630Z,10.60
2019-03-16T03:23:11.995Z,10.60
2019-03-16T03:25:41.297Z,10.60
2019-03-16T03:28:29.957Z,10.70
2019-03-16T03:30:59.273Z,10.70
2019-03-16T03:33:56.090Z,10.70
2019-03-16T03:35:59.586Z,10.70
2019-03-16T03:38:28.894Z,10.70
2019-03-16T03:41:01.600Z,10.60
2019-03-16T03:43:29.335Z,10.60
2019-03-16T03:45:58.644Z,10.70
2019-03-16T03:48:28.004Z,10.70
2019-03-16T03:50:57.374Z,10.70
2019-03-16T03:53:26.754Z,10.80
2019-03-16T03:55:56.060Z,10.70
2019-03-16T03:58:25.530Z,10.70
2019-03-16T04:00:54.843Z,10.80
2019-03-16T04:03:25.382Z,10.80
2019-03-16T04:05:54.756Z,10.80
2019-03-16T04:08:25.153Z,10.80
2019-03-16T04:10:54.534Z,10.80
2019-03-16T04:13:23.855Z,10.80
2019-03-16T04:15:53.232Z,10.80
2019-03-16T04:18:22.669Z,10.80
2019-03-16T04:20:52.133Z,10.70
2019-03-16T04:23:21.432Z,10.70
2019-03-16T04:25:50.752Z,10.70
2019-03-16T04:28:20.051Z,10.70
2019-03-16T04:30:49.378Z,10.70
2019-03-16T04:33:18.682Z,10.70
2019-03-16T04:35:48.000Z,10.70
2019-03-16T04:38:17.301Z,10.60
2019-03-16T04:40:46.625Z,10.70
2019-03-16T04:43:15.969Z,10.70
2019-03-16T04:45:45.266Z,10.60
2019-03-16T04:48:14.591Z,10.60
2019-03-16T04:50:43.907Z,10.60
2019-03-16T04:53:13.325Z,10.60
2019-03-16T04:55:42.717Z,10.60
2019-03-16T04:58:12.045Z,10.60
2019-03-16T05:00:41.433Z,10.60
2019-03-16T05:03:10.749Z,10.60
2019-03-16T05:05:40.069Z,10.60
2019-03-16T05:08:09.458Z,10.60
2019-03-16T05:10:39.011Z,10.50
2019-03-16T05:13:08.336Z,10.50
2019-03-16T05:15:37.657Z,10.50
2019-03-16T05:18:06.970Z,10.50
2019-03-16T05:20:36.302Z,10.60
2019-03-16T05:23:05.784Z,10.60
2019-03-16T05:25:35.100Z,10.50
2019-03-16T05:28:04.436Z,10.60
2019-03-16T05:30:33.732Z,10.60
2019-03-16T05:33:03.066Z,10.60
2019-03-16T05:35:32.436Z,10.70
2019-03-16T05:38:01.852Z,10.60
2019-03-16T05:40:31.238Z,10.70
2019-03-16T05:43:00.612Z,10.70
2019-03-16T05:45:29.991Z,10.60
2019-03-16T05:47:59.289Z,10.70
2019-03-16T05:50:28.616Z,10.70
2019-03-16T05:52:58.241Z,10.70
2019-03-16T05:55:27.540Z,10.60
2019-03-16T05:57:56.870Z,10.70
2019-03-16T06:00:26.193Z,10.80
2019-03-16T06:02:55.535Z,10.80
2019-03-16T06:05:24.902Z,10.70
2019-03-16T06:07:54.228Z,10.70
2019-03-16T06:10:23.522Z,10.80
2019-03-16T06:12:52.866Z,10.80
2019-03-16T06:15:22.167Z,10.80
2019-03-16T06:17:51.490Z,10.80
2019-03-16T06:20:20.816Z,10.80
2019-03-16T06:22:50.135Z,10.80
2019-03-16T06:25:19.443Z,10.70
2019-03-16T06:27:48.764Z,10.70
2019-03-16T06:30:20.701Z,10.70
2019-03-16T06:32:49.116Z,10.70
2019-03-16T06:35:24.562Z,10.70
2019-03-16T06:37:49.428Z,10.80
2019-03-16T06:40:18.752Z,10.80
2019-03-16T06:42:48.051Z,10.80
2019-03-16T06:45:17.395Z,10.80
2019-03-16T06:47:46.767Z,10.80
2019-03-16T06:50:16.438Z,10.90
2019-03-16T06:52:46.041Z,10.90
2019-03-16T06:55:15.415Z,10.90
2019-03-16T06:57:44.714Z,11.00
2019-03-16T07:00:15.583Z,11.00
2019-03-16T07:02:44.916Z,10.90
2019-03-16T07:05:14.509Z,11.00
2019-03-16T07:07:44.980Z,11.00
2019-03-16T07:10:14.846Z,11.00
2019-03-16T07:12:44.158Z,11.00
2019-03-16T07:15:14.528Z,11.00
2019-03-16T07:17:43.822Z,11.00
2019-03-16T07:20:14.714Z,11.10
2019-03-16T07:22:44.025Z,11.00
2019-03-16T07:25:13.378Z,11.00
2019-03-16T07:27:42.911Z,11.00
2019-03-16T07:30:13.583Z,11.00
2019-03-16T07:32:42.994Z,11.00
2019-03-16T07:35:12.527Z,11.00
2019-03-16T07:37:41.861Z,11.00
2019-03-16T07:40:14.965Z,11.00
2019-03-16T07:42:44.281Z,11.10
2019-03-16T07:45:13.841Z,11.00
2019-03-16T07:47:43.537Z,11.10
2019-03-16T07:50:13.834Z,11.10
2019-03-16T07:52:43.382Z,11.10
2019-03-16T07:55:12.863Z,11.10
2019-03-16T07:57:42.199Z,11.10
2019-03-16T08:00:12.537Z,11.10
2019-03-16T08:02:42.862Z,11.10
2019-03-16T08:05:18.681Z,11.10
2019-03-16T08:07:43.307Z,11.20
2019-03-16T08:10:12.839Z,11.20
2019-03-16T08:12:42.199Z,11.30
2019-03-16T08:15:11.941Z,11.30
2019-03-16T08:17:41.322Z,11.20
2019-03-16T08:20:11.365Z,11.20
2019-03-16T08:22:40.663Z,11.20
2019-03-16T08:25:10.243Z,11.30
2019-03-16T08:27:53.016Z,11.20
2019-03-16T08:30:12.412Z,11.30
2019-03-16T08:32:41.736Z,11.20
2019-03-16T08:35:11.197Z,11.20
2019-03-16T08:37:40.526Z,11.20
2019-03-16T08:40:12.904Z,11.30
2019-03-16T08:42:42.246Z,11.30
2019-03-16T08:45:12.008Z,11.30
2019-03-16T08:47:41.319Z,11.40
2019-03-16T08:50:11.424Z,11.40
2019-03-16T08:52:40.785Z,11.30
2019-03-16T08:55:10.478Z,11.20
2019-03-16T08:57:39.814Z,11.10
2019-03-16T09:00:11.121Z,11.10
2019-03-16T09:02:40.454Z,11.10
2019-03-16T09:05:09.868Z,11.10
2019-03-16T09:07:39.250Z,11.10
2019-03-16T09:10:09.985Z,11.10
2019-03-16T09:12:39.289Z,11.10
2019-03-16T09:15:11.459Z,11.10
2019-03-16T09:17:40.966Z,11.10
2019-03-16T09:20:10.507Z,11.20
2019-03-16T09:22:39.835Z,11.30
2019-03-16T09:25:10.072Z,11.40
2019-03-16T09:27:39.464Z,11.60
2019-03-16T09:30:13.875Z,11.70
2019-03-16T09:32:43.194Z,11.80
2019-03-16T09:35:12.715Z,12.00
2019-03-16T09:37:42.038Z,12.00
2019-03-16T09:40:11.680Z,12.10
2019-03-16T09:42:41.014Z,12.10
2019-03-16T09:45:12.517Z,12.10
2019-03-16T09:47:41.923Z,12.20
2019-03-16T09:50:11.741Z,12.30
2019-03-16T09:52:41.034Z,12.30
2019-03-16T09:55:13.621Z,12.30
2019-03-16T09:57:42.915Z,12.50
2019-03-16T10:00:17.024Z,12.70
2019-03-16T10:02:46.320Z,12.90
2019-03-16T10:05:15.651Z,13.00
2019-03-16T10:07:45.517Z,13.10
2019-03-16T10:10:15.607Z,13.40
2019-03-16T10:12:44.910Z,13.60
2019-03-16T10:15:15.664Z,13.50
2019-03-16T10:17:44.994Z,13.60
2019-03-16T10:20:14.760Z,13.70
2019-03-16T10:22:44.236Z,13.60
2019-03-16T10:25:13.612Z,13.30
2019-03-16T10:27:42.961Z,13.20
2019-03-16T10:30:13.802Z,13.20
2019-03-16T10:32:43.195Z,13.10
2019-03-16T10:35:12.589Z,13.00
2019-03-16T10:37:41.892Z,13.00
2019-03-16T10:40:12.362Z,13.20
2019-03-16T10:42:40.952Z,13.60
2019-03-16T10:45:11.340Z,13.60
2019-03-16T10:47:40.907Z,13.60
2019-03-16T10:50:12.746Z,13.60
2019-03-16T10:52:42.120Z,13.60
2019-03-16T10:55:11.577Z,13.60
2019-03-16T10:57:40.905Z,13.50
2019-03-16T11:00:17.250Z,13.80
2019-03-16T11:02:46.563Z,14.30
2019-03-16T11:05:16.022Z,14.60
2019-03-16T11:07:45.339Z,14.50
2019-03-16T11:10:34.063Z,14.70
2019-03-16T11:13:03.354Z,14.50
2019-03-16T11:15:32.798Z,14.50
2019-03-16T11:18:02.133Z,14.80
2019-03-16T11:20:31.433Z,15.20
2019-03-16T11:23:00.754Z,15.50
2019-03-16T11:25:30.084Z,15.70
2019-03-16T11:27:59.380Z,15.60
2019-03-16T11:30:28.717Z,15.20
2019-03-16T11:32:58.048Z,15.00
2019-03-16T11:35:27.430Z,15.20
2019-03-16T11:37:56.823Z,14.80
2019-03-16T11:40:26.117Z,14.80
2019-03-16T11:42:55.424Z,14.60
2019-03-16T11:45:24.748Z,14.50
2019-03-16T11:47:54.047Z,14.50
2019-03-16T11:50:23.597Z,14.50
2019-03-16T11:52:52.970Z,14.70
2019-03-16T11:55:23.236Z,15.20
2019-03-16T11:57:52.569Z,16.00
2019-03-16T12:00:21.936Z,15.60
2019-03-16T12:02:52.922Z,15.70
2019-03-16T12:05:27.976Z,15.80
2019-03-16T12:08:07.685Z,15.80
2019-03-16T12:10:48.530Z,16.70
2019-03-16T12:13:34.614Z,17.60
2019-03-16T12:16:10.801Z,18.20
2019-03-16T12:18:52.638Z,19.00
2019-03-16T12:21:46.233Z,19.00
2019-03-16T12:24:15.539Z,18.20
2019-03-16T12:26:44.891Z,17.20
2019-03-16T12:29:14.224Z,17.70
2019-03-16T12:31:43.525Z,18.00
2019-03-16T12:34:12.865Z,18.30
2019-03-16T12:36:42.173Z,19.00
2019-03-16T12:39:11.776Z,19.10
2019-03-16T12:41:41.074Z,19.50
2019-03-16T12:44:10.391Z,19.90
2019-03-16T12:46:39.730Z,19.90
2019-03-16T12:49:09.026Z,20.20
2019-03-16T12:51:38.353Z,20.00
2019-03-16T12:54:07.760Z,20.00
2019-03-16T12:56:37.141Z,19.80
2019-03-16T12:59:10.882Z,19.50
2019-03-16T13:01:38.744Z,18.90
2019-03-16T13:04:08.153Z,19.00
2019-03-16T13:06:37.487Z,19.10
2019-03-16T13:09:07.837Z,19.40
2019-03-16T13:11:37.272Z,19.70
2019-03-16T13:14:07.760Z,19.60
2019-03-16T13:16:37.389Z,19.50
2019-03-16T13:19:06.878Z,19.40
2019-03-16T13:21:36.175Z,19.10
2019-03-16T13:25:30.980Z,19.10
2019-03-16T13:28:00.385Z,19.40
2019-03-16T13:30:29.696Z,19.90
2019-03-16T13:32:58.996Z,19.80
2019-03-16T13:35:28.327Z,20.00
2019-03-16T13:37:58.699Z,20.70
2019-03-16T13:40:28.036Z,20.70
2019-03-16T13:42:57.506Z,21.00
2019-03-16T13:45:26.961Z,21.50
2019-03-16T13:47:56.351Z,21.50
2019-03-16T13:50:25.687Z,20.80
2019-03-16T13:52:55.250Z,20.70
2019-03-16T13:55:24.903Z,20.40
2019-03-16T13:57:54.218Z,20.20
2019-03-16T14:00:23.890Z,20.20
2019-03-16T14:02:53.216Z,20.50
2019-03-16T14:05:22.599Z,20.80
2019-03-16T14:07:51.928Z,20.20
2019-03-16T14:10:44.986Z,20.00
2019-03-16T14:13:14.561Z,19.60
2019-03-16T14:15:43.872Z,20.30
2019-03-16T14:18:13.199Z,20.00
2019-03-16T14:20:42.516Z,19.90
2019-03-16T14:23:11.871Z,20.20
2019-03-16T14:25:41.551Z,20.70
2019-03-16T14:28:10.856Z,20.70
2019-03-16T14:30:43.800Z,19.70
2019-03-16T14:33:12.320Z,19.10
2019-03-16T14:35:41.657Z,19.10
2019-03-16T14:38:10.963Z,18.50
2019-03-16T14:40:40.303Z,18.60
2019-03-16T14:43:11.390Z,18.70
2019-03-16T14:45:40.826Z,18.50
2019-03-16T14:48:10.117Z,18.10
2019-03-16T14:50:39.439Z,17.80
2019-03-16T14:53:08.789Z,17.70
2019-03-16T14:55:39.308Z,17.60
2019-03-16T14:58:08.662Z,17.30
2019-03-16T15:00:39.019Z,16.80
2019-03-16T15:03:07.705Z,16.30
2019-03-16T15:05:36.959Z,16.10
2019-03-16T15:08:06.272Z,16.00
2019-03-16T15:10:54.913Z,15.80
2019-03-16T15:13:26.797Z,15.90
2019-03-16T15:15:55.269Z,15.90
2019-03-16T15:18:24.659Z,15.80
2019-03-16T15:20:53.990Z,15.50
2019-03-16T15:23:23.308Z,15.40
2019-03-16T15:25:52.694Z,15.50
2019-03-16T15:28:22.025Z,15.40
2019-03-16T15:30:51.357Z,15.20
2019-03-16T15:33:20.851Z,15.00
2019-03-16T15:35:50.154Z,14.80
2019-03-16T15:38:19.490Z,14.80
2019-03-16T15:40:48.819Z,15.00
2019-03-16T15:43:18.165Z,15.00
2019-03-16T15:45:47.468Z,15.20
2019-03-16T15:48:16.803Z,15.20
2019-03-16T15:50:46.117Z,15.30
2019-03-16T15:53:25.949Z,15.30
2019-03-16T15:55:55.236Z,15.20
2019-03-16T15:58:24.650Z,15.00
2019-03-16T16:01:02.977Z,14.80
2019-03-16T16:03:25.174Z,14.60
2019-03-16T16:05:56.325Z,14.40
2019-03-16T16:08:26.225Z,14.20
2019-03-16T16:11:00.984Z,14.10
2019-03-16T16:13:26.556Z,14.00
2019-03-16T16:15:55.867Z,14.00
2019-03-16T16:18:25.180Z,13.90
2019-03-16T16:20:54.512Z,13.80
2019-03-16T16:23:23.881Z,13.80
2019-03-16T16:25:53.205Z,13.70
2019-03-16T16:28:22.561Z,13.70
2019-03-16T16:30:51.883Z,13.70
2019-03-16T16:33:21.182Z,13.60
2019-03-16T16:35:50.515Z,13.60
2019-03-16T16:38:19.817Z,13.50
2019-03-16T16:40:49.226Z,13.50
2019-03-16T16:43:18.708Z,13.30
2019-03-16T16:45:48.153Z,13.30
2019-03-16T16:48:17.809Z,13.20
2019-03-16T16:50:47.055Z,13.00
2019-03-16T16:53:16.466Z,12.90
2019-03-16T16:55:45.841Z,12.70
2019-03-16T16:58:15.188Z,12.60
2019-03-16T17:00:44.498Z,12.50
2019-03-16T17:03:14.159Z,12.40
2019-03-16T17:05:43.678Z,12.30
2019-03-16T17:08:13.023Z,12.30
2019-03-16T17:10:42.365Z,12.20
2019-03-16T17:13:13.046Z,12.00
2019-03-16T17:15:42.373Z,12.00
2019-03-16T17:18:11.683Z,11.80
2019-03-16T17:20:41.010Z,11.60
2019-03-16T17:23:11.862Z,11.50
2019-03-16T17:25:41.280Z,11.40
2019-03-16T17:28:10.580Z,11.20
2019-03-16T17:30:39.906Z,11.10
2019-03-16T17:33:09.211Z,11.00
2019-03-16T17:35:38.546Z,10.90
2019-03-16T17:38:07.854Z,10.80
2019-03-16T17:40:37.174Z,10.70
2019-03-16T17:43:06.581Z,10.60
2019-03-16T17:45:36.033Z,10.50
2019-03-16T17:48:05.512Z,10.40
2019-03-16T17:50:34.811Z,10.30
2019-03-16T17:53:04.137Z,10.20
2019-03-16T17:55:33.479Z,10.20
2019-03-16T17:58:02.863Z,10.10
2019-03-16T18:00:32.263Z,10.00
2019-03-16T18:03:01.593Z,9.90
2019-03-16T18:05:30.900Z,9.80
2019-03-16T18:08:00.252Z,9.70
2019-03-16T18:10:29.563Z,9.60
2019-03-16T18:12:58.958Z,9.60
2019-03-16T18:22:29.004Z,9.20
2019-03-16T18:24:58.349Z,9.10
2019-03-16T18:27:27.685Z,9.00
2019-03-16T18:29:57.005Z,9.00
2019-03-16T18:32:26.351Z,9.00
2019-03-16T18:34:55.941Z,9.00
2019-03-16T18:37:27.225Z,9.00
2019-03-16T18:39:56.865Z,8.90
2019-03-16T18:42:27.936Z,8.80
2019-03-16T18:44:57.357Z,8.80
2019-03-16T18:47:26.675Z,8.70
2019-03-16T18:49:55.977Z,8.40
2019-03-16T18:52:25.320Z,8.40
2019-03-16T18:54:54.618Z,8.30
2019-03-16T18:57:23.923Z,8.30
2019-03-16T18:59:53.270Z,8.20
2019-03-16T19:02:22.603Z,8.00
2019-03-16T19:05:04.615Z,8.00
2019-03-16T19:07:33.898Z,7.90
2019-03-16T19:10:04.348Z,7.70
2019-03-16T19:12:33.642Z,7.70
2019-03-16T19:15:02.958Z,7.60
2019-03-16T19:17:32.527Z,7.60
2019-03-16T19:20:01.875Z,7.50
2019-03-16T19:22:31.216Z,7.40
2019-03-16T19:25:00.674Z,7.30
2019-03-16T19:27:31.236Z,7.30
2019-03-16T19:30:00.629Z,7.30
2019-03-16T19:32:33.906Z,7.30
2019-03-16T19:35:01.503Z,7.30
2019-03-16T19:37:31.895Z,7.30
2019-03-16T19:40:01.282Z,7.10
2019-03-16T19:42:30.879Z,7.00
2019-03-16T19:45:00.429Z,7.00
2019-03-16T19:47:29.801Z,7.00
2019-03-16T19:49:59.477Z,6.90
2019-03-16T19:52:28.851Z,6.80
2019-03-16T19:55:01.453Z,6.90
2019-03-16T19:57:31.956Z,6.90
2019-03-16T20:00:01.903Z,6.70
2019-03-16T20:02:31.300Z,6.70
2019-03-16T20:05:00.645Z,6.70
2019-03-16T20:07:30.072Z,6.70
2019-03-16T20:09:59.366Z,6.50
2019-03-16T20:12:41.096Z,6.50
2019-03-16T20:15:12.176Z,6.50
2019-03-16T20:17:41.554Z,6.50
2019-03-16T20:20:12.945Z,6.40
2019-03-16T20:22:42.495Z,6.20
2019-03-16T20:25:12.041Z,6.20
2019-03-16T20:27:41.362Z,6.20
2019-03-16T20:30:15.296Z,6.20
2019-03-16T20:32:48.594Z,6.10
2019-03-16T20:35:17.026Z,6.10
2019-03-16T20:37:46.359Z,6.10
2019-03-16T20:40:18.918Z,6.10
2019-03-16T20:42:48.284Z,6.10
2019-03-16T20:45:17.793Z,6.10
2019-03-16T20:47:47.452Z,6.10
2019-03-16T20:50:17.793Z,6.10
2019-03-16T20:52:47.258Z,6.10
2019-03-16T20:55:16.778Z,6.30
2019-03-16T20:57:46.254Z,6.40
2019-03-16T21:00:19.469Z,6.40
2019-03-16T21:02:48.851Z,6.40
2019-03-16T21:05:18.187Z,6.40
2019-03-16T21:07:47.678Z,6.30
2019-03-16T21:10:17.042Z,6.30
2019-03-16T21:12:46.664Z,6.30
2019-03-16T21:15:19.654Z,6.30
2019-03-16T21:17:48.985Z,6.40
2019-03-16T21:20:19.399Z,6.40
2019-03-16T21:22:48.794Z,6.30
2019-03-16T21:25:18.461Z,6.30
2019-03-16T21:27:47.995Z,6.30
2019-03-16T21:30:21.713Z,6.30
2019-03-16T21:32:51.193Z,6.30
2019-03-16T21:35:20.588Z,6.20
2019-03-16T21:37:49.882Z,6.20
2019-03-16T21:40:19.288Z,6.20
2019-03-16T21:42:48.658Z,6.20
2019-03-16T21:45:17.972Z,6.20
2019-03-16T21:47:59.100Z,6.10
2019-03-16T21:50:18.292Z,6.00
2019-03-16T21:52:47.649Z,6.00
2019-03-16T21:55:16.967Z,6.00
2019-03-16T21:57:46.336Z,5.90
2019-03-16T22:00:17.775Z,5.80
2019-03-16T22:02:47.092Z,5.80
2019-03-16T22:05:16.569Z,5.80
2019-03-16T22:07:45.928Z,5.60
2019-03-16T22:10:16.840Z,5.60
2019-03-16T22:12:46.237Z,5.50
2019-03-16T22:15:16.584Z,5.40
2019-03-16T22:17:47.213Z,5.40
2019-03-16T22:20:18.530Z,5.30
2019-03-16T22:22:47.927Z,5.20
2019-03-16T22:25:17.338Z,5.10
2019-03-16T22:27:46.623Z,5.10
2019-03-16T22:30:18.665Z,4.90
2019-03-16T22:32:47.959Z,5.00
2019-03-16T22:35:17.287Z,4.90
2019-03-16T22:37:46.592Z,4.80
2019-03-16T22:40:16.154Z,4.70
2019-03-16T22:42:45.476Z,4.70
2019-03-16T22:45:15.134Z,4.70
2019-03-16T22:47:44.443Z,4.70
2019-03-16T22:50:20.857Z,4.60
2019-03-16T22:52:50.229Z,4.60
2019-03-16T22:55:19.553Z,4.50
2019-03-16T22:57:48.843Z,4.50
2019-03-16T23:00:21.546Z,4.30
2019-03-16T23:02:52.559Z,4.40
2019-03-16T23:05:21.922Z,4.30
2019-03-16T23:07:51.242Z,4.30
2019-03-16T23:10:20.564Z,4.30
2019-03-16T23:12:51.497Z,4.20
2019-03-16T23:15:20.808Z,4.20
2019-03-16T23:17:52.705Z,4.20
2019-03-16T23:20:21.295Z,4.10
2019-03-16T23:22:50.588Z,4.10
2019-03-16T23:25:19.935Z,4.10
2019-03-16T23:27:49.313Z,4.10
2019-03-16T23:30:18.865Z,4.10
2019-03-16T23:32:48.240Z,4.00
2019-03-16T23:35:17.618Z,4.00
2019-03-16T23:37:46.946Z,3.90
2019-03-16T23:40:16.340Z,3.90
2019-03-16T23:42:45.659Z,3.90
2019-03-16T23:45:15.221Z,3.90
2019-03-16T23:47:44.552Z,3.90
2019-03-16T23:50:14.711Z,3.90
2019-03-16T23:52:44.004Z,3.90
2019-03-16T23:55:13.460Z,3.80
2019-03-16T23:57:42.776Z,3.80
